Time;durP1;ratioP1;P1;durP2;ratioP2;P2;SDS_P1;SDS_P2;PMS_P1;PMS_P2;Temp;Humidity;BMP_temperature;BMP_pressure;BME280_temperature;BME280_humidity;BME280_pressure;Samples;Min_cycle;Max_cycle;Signal;HPM_P1;HPM_P2
2021/01/25 00:02:14;;;;;;;59.38;33.30;;;;;;;;;;5040018;28;20045;-64
2021/01/25 00:04:59;;;;;;;52.72;28.50;;;;;;;;;;5021366;28;20049;-63
2021/01/25 00:07:45;;;;;;;51.50;27.38;;;;;;;;;;5037240;28;20033;-64
2021/01/25 00:10:30;;;;;;;32.67;19.02;;;;;;;;;;5051878;28;20414;-63
2021/01/25 00:13:15;;;;;;;28.50;17.23;;;;;;;;;;5051996;28;20048;-64
2021/01/25 00:16:01;;;;;;;41.80;23.27;;;;;;;;;;5012077;28;20492;-63
2021/01/25 00:18:46;;;;;;;31.38;18.23;;;;;;;;;;5012171;28;20042;-63
2021/01/25 00:21:32;;;;;;;56.08;29.23;;;;;;;;;;5012101;28;20045;-62
2021/01/25 00:24:17;;;;;;;54.55;29.30;;;;;;;;;;5021568;28;20049;-62
2021/01/25 00:27:03;;;;;;;54.22;29.50;;;;;;;;;;5033393;28;20050;-62
2021/01/25 00:29:48;;;;;;;56.50;30.08;;;;;;;;;;5031918;28;20041;-62
2021/01/25 00:32:33;;;;;;;64.05;33.53;;;;;;;;;;5044452;28;20123;-62
2021/01/25 00:35:19;;;;;;;64.45;33.50;;;;;;;;;;5055785;28;20041;-63
2021/01/25 00:38:04;;;;;;;74.28;35.55;;;;;;;;;;5055595;28;20122;-63
2021/01/25 00:40:50;;;;;;;65.30;33.15;;;;;;;;;;5055570;28;20037;-62
2021/01/25 00:43:35;;;;;;;74.75;37.53;;;;;;;;;;5053806;28;20048;-63
2021/01/25 00:46:20;;;;;;;83.72;39.80;;;;;;;;;;5055419;28;20044;-62
2021/01/25 00:49:06;;;;;;;74.75;40.05;;;;;;;;;;5054561;28;20041;-62
2021/01/25 00:51:51;;;;;;;65.50;34.67;;;;;;;;;;5052176;28;20067;-62
2021/01/25 00:54:37;;;;;;;51.22;27.55;;;;;;;;;;5054465;28;20084;-64
2021/01/25 00:57:22;;;;;;;43.45;25.90;;;;;;;;;;5055260;28;20068;-62
2021/01/25 01:00:09;;;;;;;61.75;33.13;;;;;;;;;;5055289;28;20041;-63
2021/01/25 01:02:54;;;;;;;67.88;32.83;;;;;;;;;;5015507;28;20077;-63
2021/01/25 01:05:39;;;;;;;78.90;36.00;;;;;;;;;;5015483;28;20116;-63
2021/01/25 01:08:25;;;;;;;68.70;35.28;;;;;;;;;;5014468;28;20076;-63
2021/01/25 01:11:11;;;;;;;59.05;30.52;;;;;;;;;;5038861;28;20052;-62
2021/01/25 01:13:56;;;;;;;38.40;22.08;;;;;;;;;;5054935;28;20040;-64
2021/01/25 01:16:41;;;;;;;65.65;33.92;;;;;;;;;;5054751;28;20053;-62
2021/01/25 01:19:26;;;;;;;75.88;37.67;;;;;;;;;;5054984;28;20041;-62
2021/01/25 01:22:12;;;;;;;91.30;43.40;;;;;;;;;;5043542;28;20041;-62
2021/01/25 01:24:57;;;;;;;81.22;42.25;;;;;;;;;;5034882;28;20045;-62
2021/01/25 01:27:43;;;;;;;73.18;40.30;;;;;;;;;;5034800;28;20403;-62
2021/01/25 01:30:28;;;;;;;85.80;43.08;;;;;;;;;;5034793;28;20041;-63
2021/01/25 01:33:14;;;;;;;72.40;39.20;;;;;;;;;;5050889;28;20124;-63
2021/01/25 01:35:59;;;;;;;81.72;41.13;;;;;;;;;;5054644;28;20045;-64
2021/01/25 01:38:44;;;;;;;84.22;43.30;;;;;;;;;;5054541;28;20437;-63
2021/01/25 01:41:34;;;;;;;82.78;41.10;;;;;;;;;;5054335;28;20077;-62
2021/01/25 01:44:19;;;;;;;76.75;41.25;;;;;;;;;;5033996;28;20049;-62
2021/01/25 01:47:05;;;;;;;95.18;49.25;;;;;;;;;;5034451;28;20453;-62
2021/01/25 01:49:50;;;;;;;80.95;43.80;;;;;;;;;;5034463;28;20038;-64
2021/01/25 01:52:36;;;;;;;85.50;44.85;;;;;;;;;;5039411;28;20108;-62
2021/01/25 01:55:21;;;;;;;74.82;39.30;;;;;;;;;;5054183;28;20041;-63
2021/01/25 01:58:06;;;;;;;92.85;48.78;;;;;;;;;;5054016;28;20495;-62
2021/01/25 02:00:51;;;;;;;101.05;52.92;;;;;;;;;;5067084;28;20486;-62
2021/01/25 02:03:36;;;;;;;95.53;47.47;;;;;;;;;;5042927;28;20423;-64
2021/01/25 02:06:22;;;;;;;91.53;49.00;;;;;;;;;;5035087;28;20042;-62
2021/01/25 02:09:07;;;;;;;53.00;30.20;;;;;;;;;;5048379;28;20084;-63
2021/01/25 02:11:52;;;;;;;73.57;36.58;;;;;;;;;;5034026;28;20124;-62
2021/01/25 02:14:38;;;;;;;70.63;36.28;;;;;;;;;;5034986;28;20042;-62
2021/01/25 02:17:23;;;;;;;77.68;39.20;;;;;;;;;;5034064;28;20049;-63
2021/01/25 02:20:10;;;;;;;74.93;39.90;;;;;;;;;;5034130;28;20045;-63
2021/01/25 02:23:14;;;;;;;79.43;41.58;;;;;;;;;;5046653;28;20038;-62
2021/01/25 02:26:12;;;;;;;100.45;47.03;;;;;;;;;;5051905;28;20045;-62
2021/01/25 02:28:57;;;;;;;72.90;40.85;;;;;;;;;;5053573;28;20041;-63
2021/01/25 02:31:42;;;;;;;65.43;36.65;;;;;;;;;;5066557;28;20041;-63
2021/01/25 02:34:29;;;;;;;81.32;40.97;;;;;;;;;;5063282;28;20045;-62
2021/01/25 02:37:14;;;;;;;103.47;53.22;;;;;;;;;;5046247;28;20068;-62
2021/01/25 02:40:00;;;;;;;126.65;53.00;;;;;;;;;;5046407;28;20049;-62
2021/01/25 02:42:45;;;;;;;119.95;51.63;;;;;;;;;;5046384;28;20042;-62
2021/01/25 02:45:30;;;;;;;116.00;53.33;;;;;;;;;;5054821;28;20049;-62
2021/01/25 02:48:15;;;;;;;120.18;55.40;;;;;;;;;;5053145;28;20036;-62
2021/01/25 02:51:00;;;;;;;117.68;50.15;;;;;;;;;;5053192;28;20718;-62
2021/01/25 02:53:46;;;;;;;107.55;47.38;;;;;;;;;;5052963;28;20049;-62
2021/01/25 02:56:31;;;;;;;97.88;45.20;;;;;;;;;;5037728;28;20041;-62
2021/01/25 02:59:16;;;;;;;97.63;46.17;;;;;;;;;;5033176;28;20046;-62
2021/01/25 03:02:02;;;;;;;113.80;49.45;;;;;;;;;;5032933;28;20123;-63
2021/01/25 03:04:47;;;;;;;108.78;50.08;;;;;;;;;;5045941;28;20049;-62
2021/01/25 03:07:32;;;;;;;132.68;56.03;;;;;;;;;;5033281;28;20038;-63
2021/01/25 03:10:17;;;;;;;104.93;44.45;;;;;;;;;;5045933;28;20522;-62
2021/01/25 03:13:03;;;;;;;81.13;39.20;;;;;;;;;;5032637;28;20046;-63
2021/01/25 03:15:48;;;;;;;76.47;38.58;;;;;;;;;;5034696;28;20085;-63
2021/01/25 03:18:33;;;;;;;82.95;38.83;;;;;;;;;;5064728;28;20049;-62
2021/01/25 03:21:18;;;;;;;54.13;30.38;;;;;;;;;;5052557;28;20053;-63
2021/01/25 03:24:04;;;;;;;81.22;39.40;;;;;;;;;;5042658;28;20046;-63
2021/01/25 03:26:50;;;;;;;49.78;30.02;;;;;;;;;;5038886;28;20048;-62
2021/01/25 03:29:35;;;;;;;89.80;44.88;;;;;;;;;;5063921;28;20045;-62
2021/01/25 03:32:20;;;;;;;82.50;41.08;;;;;;;;;;5052303;28;20053;-62
2021/01/25 03:35:06;;;;;;;85.22;43.30;;;;;;;;;;5052314;28;20037;-63
2021/01/25 03:37:52;;;;;;;128.48;57.92;;;;;;;;;;5049391;28;20443;-62
2021/01/25 03:40:37;;;;;;;131.38;61.13;;;;;;;;;;5032680;28;20050;-63
2021/01/25 03:43:22;;;;;;;114.40;54.05;;;;;;;;;;5036146;28;20587;-63
2021/01/25 03:46:07;;;;;;;91.53;45.55;;;;;;;;;;5052199;28;20084;-63
2021/01/25 03:48:53;;;;;;;133.63;61.90;;;;;;;;;;5043848;28;20488;-63
2021/01/25 03:51:38;;;;;;;120.85;57.17;;;;;;;;;;5032327;28;20053;-63
2021/01/25 03:54:24;;;;;;;125.00;59.10;;;;;;;;;;5032010;28;20423;-63
2021/01/25 03:57:09;;;;;;;117.43;51.20;;;;;;;;;;5032370;28;20041;-63
2021/01/25 03:59:54;;;;;;;124.07;58.03;;;;;;;;;;5042389;28;20037;-63
2021/01/25 04:02:40;;;;;;;131.57;60.00;;;;;;;;;;5032018;28;20046;-63
2021/01/25 04:05:25;;;;;;;117.18;52.28;;;;;;;;;;5032089;28;20053;-63
2021/01/25 04:08:10;;;;;;;166.85;69.90;;;;;;;;;;5033999;28;20048;-63
2021/01/25 04:10:56;;;;;;;102.90;49.42;;;;;;;;;;5051807;28;20483;-63
2021/01/25 04:13:41;;;;;;;96.18;45.45;;;;;;;;;;5051718;28;20045;-63
2021/01/25 04:16:26;;;;;;;67.82;34.55;;;;;;;;;;5051788;28;20087;-63
2021/01/25 04:19:12;;;;;;;89.18;41.78;;;;;;;;;;5043629;28;20054;-63
2021/01/25 04:21:57;;;;;;;127.50;58.22;;;;;;;;;;5031733;28;20107;-63
2021/01/25 04:24:43;;;;;;;112.10;53.78;;;;;;;;;;5032105;28;20053;-63
2021/01/25 04:27:28;;;;;;;87.95;44.35;;;;;;;;;;5031752;28;20054;-63
2021/01/25 04:30:16;;;;;;;91.85;44.80;;;;;;;;;;5045277;28;20045;-63
2021/01/25 04:33:01;;;;;;;93.28;45.92;;;;;;;;;;5051693;28;20049;-63
2021/01/25 04:35:46;;;;;;;81.97;43.00;;;;;;;;;;5051718;28;20041;-63
2021/01/25 04:38:32;;;;;;;95.13;45.03;;;;;;;;;;5051655;28;20145;-63
2021/01/25 04:41:17;;;;;;;113.90;53.45;;;;;;;;;;5031946;28;20060;-63
2021/01/25 04:44:02;;;;;;;151.75;65.22;;;;;;;;;;5031726;28;20050;-63
2021/01/25 04:46:48;;;;;;;74.35;38.50;;;;;;;;;;5031613;28;20680;-63
2021/01/25 04:49:33;;;;;;;133.15;54.05;;;;;;;;;;5033715;28;20432;-63
2021/01/25 04:52:18;;;;;;;87.72;42.30;;;;;;;;;;5051310;28;20059;-63
2021/01/25 04:55:04;;;;;;;78.88;40.53;;;;;;;;;;5051659;28;20037;-63
2021/01/25 04:57:50;;;;;;;70.88;39.00;;;;;;;;;;5051503;28;20045;-63
2021/01/25 05:00:35;;;;;;;72.97;38.75;;;;;;;;;;5032113;28;20546;-63
2021/01/25 05:03:20;;;;;;;83.55;43.35;;;;;;;;;;5047438;28;20049;-63
2021/01/25 05:06:05;;;;;;;128.00;60.63;;;;;;;;;;5057327;28;20081;-63
2021/01/25 05:08:50;;;;;;;140.13;64.95;;;;;;;;;;5035261;28;20049;-63
2021/01/25 05:11:36;;;;;;;91.75;44.85;;;;;;;;;;5051267;28;20123;-63
2021/01/25 05:14:21;;;;;;;97.00;47.85;;;;;;;;;;5032733;28;20136;-63
2021/01/25 05:17:07;;;;;;;89.72;44.75;;;;;;;;;;5039293;28;20080;-63
2021/01/25 05:19:57;;;;;;;121.07;60.92;;;;;;;;;;5052876;28;20041;-63
2021/01/25 05:22:42;;;;;;;135.75;66.53;;;;;;;;;;5053267;28;20045;-63
2021/01/25 05:25:29;;;;;;;125.00;61.03;;;;;;;;;;5054762;28;20053;-63
2021/01/25 05:28:18;;;;;;;124.40;61.40;;;;;;;;;;5054695;28;20072;-63
2021/01/25 05:31:04;;;;;;;149.32;69.68;;;;;;;;;;5054838;28;20801;-63
2021/01/25 05:33:49;;;;;;;132.23;62.60;;;;;;;;;;5046881;28;20057;-62
2021/01/25 05:36:34;;;;;;;122.13;57.42;;;;;;;;;;5034577;28;20492;-63
2021/01/25 05:39:20;;;;;;;116.43;53.40;;;;;;;;;;5034823;28;20050;-63
2021/01/25 05:42:05;;;;;;;134.25;66.90;;;;;;;;;;5034507;28;20091;-63
2021/01/25 05:44:50;;;;;;;131.90;65.22;;;;;;;;;;5047682;28;20053;-63
2021/01/25 05:47:45;;;;;;;74.65;40.47;;;;;;;;;;5054534;28;20045;-63
2021/01/25 05:50:33;;;;;;;79.55;40.25;;;;;;;;;;5054518;28;20045;-63
2021/01/25 05:53:18;;;;;;;61.45;32.15;;;;;;;;;;5054838;28;20076;-63
2021/01/25 05:56:06;;;;;;;52.47;31.70;;;;;;;;;;5052668;28;20045;-63
2021/01/25 05:58:51;;;;;;;63.88;35.15;;;;;;;;;;5052530;28;20037;-63
2021/01/25 06:01:36;;;;;;;75.82;37.30;;;;;;;;;;5041147;28;20440;-63
2021/01/25 06:04:22;;;;;;;74.75;37.95;;;;;;;;;;5042903;28;20068;-63
2021/01/25 06:07:10;;;;;;;76.90;39.17;;;;;;;;;;5041212;28;20046;-63
2021/01/25 06:09:56;;;;;;;67.28;36.78;;;;;;;;;;5059068;28;20038;-63
2021/01/25 06:12:42;;;;;;;83.45;42.95;;;;;;;;;;5041439;28;20037;-63
2021/01/25 06:15:27;;;;;;;75.90;39.50;;;;;;;;;;5062759;28;20183;-63
2021/01/25 06:18:13;;;;;;;79.40;41.47;;;;;;;;;;5014095;28;20124;-63
2021/01/25 06:20:58;;;;;;;77.68;42.30;;;;;;;;;;5066264;28;20045;-63
2021/01/25 06:23:44;;;;;;;84.47;42.03;;;;;;;;;;5049705;28;20049;-63
2021/01/25 06:26:33;;;;;;;73.45;37.53;;;;;;;;;;5046634;28;20061;-63
2021/01/25 06:29:20;;;;;;;77.63;41.58;;;;;;;;;;5052134;28;20056;-63
2021/01/25 06:32:05;;;;;;;120.95;54.08;;;;;;;;;;5050200;28;20091;-64
2021/01/25 06:34:50;;;;;;;64.60;34.70;;;;;;;;;;5033541;28;20403;-63
2021/01/25 06:37:37;;;;;;;86.05;44.25;;;;;;;;;;5046408;28;20491;-63
2021/01/25 06:40:26;;;;;;;86.07;40.63;;;;;;;;;;5033620;28;20132;-63
2021/01/25 06:43:13;;;;;;;71.50;38.90;;;;;;;;;;5042554;28;20411;-64
2021/01/25 06:45:58;;;;;;;85.32;43.55;;;;;;;;;;5038256;28;20042;-63
2021/01/25 06:48:46;;;;;;;65.95;32.90;;;;;;;;;;5032168;28;20045;-64
2021/01/25 06:51:31;;;;;;;66.53;36.00;;;;;;;;;;5031908;28;20412;-63
2021/01/25 06:54:17;;;;;;;82.63;42.10;;;;;;;;;;5030936;28;20567;-63
2021/01/25 06:57:02;;;;;;;85.93;46.72;;;;;;;;;;5046088;28;20415;-63
2021/01/25 06:59:48;;;;;;;94.45;46.88;;;;;;;;;;5046043;28;20496;-63
2021/01/25 07:02:34;;;;;;;83.57;43.08;;;;;;;;;;5033270;28;20084;-63
2021/01/25 07:05:22;;;;;;;79.72;41.78;;;;;;;;;;5045640;28;20132;-63
2021/01/25 07:08:26;;;;;;;110.25;53.17;;;;;;;;;;5031184;28;20052;-63
2021/01/25 07:11:11;;;;;;;81.80;43.20;;;;;;;;;;5033787;28;20037;-64
2021/01/25 07:13:56;;;;;;;112.15;53.10;;;;;;;;;;5045348;28;20041;-63
2021/01/25 07:16:42;;;;;;;86.82;45.28;;;;;;;;;;5045574;28;20041;-63
2021/01/25 07:19:27;;;;;;;66.65;37.10;;;;;;;;;;5046962;28;20474;-63
2021/01/25 07:22:12;;;;;;;59.72;33.63;;;;;;;;;;5032561;28;20041;-63
2021/01/25 07:24:58;;;;;;;83.35;43.08;;;;;;;;;;5032438;28;20053;-63
2021/01/25 07:27:43;;;;;;;113.55;56.28;;;;;;;;;;5043096;28;20038;-63
2021/01/25 07:30:32;;;;;;;105.30;52.75;;;;;;;;;;5031853;28;20045;-63
2021/01/25 07:33:17;;;;;;;70.85;37.58;;;;;;;;;;5031775;28;20045;-63
2021/01/25 07:36:03;;;;;;;103.28;51.22;;;;;;;;;;5032973;28;20041;-63
2021/01/25 07:38:48;;;;;;;79.13;42.53;;;;;;;;;;5045625;28;20041;-63
2021/01/25 07:41:34;;;;;;;59.65;33.40;;;;;;;;;;5032300;28;20045;-63
2021/01/25 07:44:19;;;;;;;48.15;29.75;;;;;;;;;;5043287;28;20049;-63
2021/01/25 07:47:04;;;;;;;90.80;44.80;;;;;;;;;;5042817;28;20045;-63
2021/01/25 07:49:49;;;;;;;73.88;40.22;;;;;;;;;;5032264;28;20678;-63
2021/01/25 07:52:35;;;;;;;71.18;39.38;;;;;;;;;;5046535;28;20151;-63
2021/01/25 07:55:21;;;;;;;80.93;43.17;;;;;;;;;;5050558;28;20044;-63
2021/01/25 07:58:06;;;;;;;90.72;45.47;;;;;;;;;;5012283;28;20521;-63
2021/01/25 08:00:52;;;;;;;72.68;38.28;;;;;;;;;;5022127;28;20053;-63
2021/01/25 08:03:37;;;;;;;71.60;39.92;;;;;;;;;;5032146;28;20124;-63
2021/01/25 08:06:22;;;;;;;75.22;40.50;;;;;;;;;;5051667;28;20048;-62
2021/01/25 08:09:08;;;;;;;78.53;41.97;;;;;;;;;;5064945;28;20053;-63
2021/01/25 08:11:53;;;;;;;93.45;46.72;;;;;;;;;;5065016;28;20415;-63
2021/01/25 08:14:40;;;;;;;78.90;44.38;;;;;;;;;;5051831;28;20041;-63
2021/01/25 08:17:29;;;;;;;85.78;47.13;;;;;;;;;;5054426;28;20492;-63
2021/01/25 08:20:20;;;;;;;101.60;50.97;;;;;;;;;;5044394;28;20050;-63
2021/01/25 08:23:20;;;;;;;109.75;57.53;;;;;;;;;;5031718;28;20041;-64
2021/01/25 08:26:06;;;;;;;147.60;69.53;;;;;;;;;;5058797;28;20053;-63
2021/01/25 08:28:57;;;;;;;121.10;59.53;;;;;;;;;;5051775;28;20396;-64
2021/01/25 08:31:43;;;;;;;125.80;61.95;;;;;;;;;;5049998;28;20049;-64
2021/01/25 08:34:29;;;;;;;140.55;65.25;;;;;;;;;;5051959;28;20057;-62
2021/01/25 08:37:25;;;;;;;133.45;64.57;;;;;;;;;;5031720;28;20041;-63
2021/01/25 08:40:19;;;;;;;136.82;65.75;;;;;;;;;;5031662;28;20061;-64
2021/01/25 08:43:05;;;;;;;108.57;57.88;;;;;;;;;;5031715;28;20046;-63
2021/01/25 08:45:50;;;;;;;124.07;62.33;;;;;;;;;;5032915;28;20049;-63
2021/01/25 08:48:35;;;;;;;119.80;61.60;;;;;;;;;;5031427;28;20049;-63
2021/01/25 08:51:31;;;;;;;109.88;59.95;;;;;;;;;;5032776;28;20435;-64
2021/01/25 14:03:25;;;;;;;14.65;10.05;;;;;;;;;;5150954;27;20767;-66
2021/01/25 14:06:11;;;;;;;17.80;11.68;;;;;;;;;;5149239;27;20083;-66
2021/01/25 14:08:56;;;;;;;13.38;10.40;;;;;;;;;;5151034;27;20035;-66
2021/01/25 14:11:42;;;;;;;16.33;10.63;;;;;;;;;;5150192;27;20047;-66
2021/01/25 14:14:27;;;;;;;15.77;11.95;;;;;;;;;;5128607;27;20039;-66
2021/01/25 14:17:13;;;;;;;14.52;11.27;;;;;;;;;;5129979;27;20409;-66
2021/01/25 14:19:58;;;;;;;18.38;11.25;;;;;;;;;;5147297;27;20043;-66
2021/01/25 14:22:43;;;;;;;15.27;11.50;;;;;;;;;;5132850;27;20066;-66
2021/01/25 14:25:29;;;;;;;13.68;10.45;;;;;;;;;;5157442;27;20043;-66
2021/01/25 14:28:14;;;;;;;14.27;10.88;;;;;;;;;;5162862;27;20035;-66
2021/01/25 14:31:00;;;;;;;12.05;8.93;;;;;;;;;;5164837;27;20038;-66
2021/01/25 14:33:50;;;;;;;14.98;9.88;;;;;;;;;;5134179;27;20038;-66
2021/01/25 14:36:35;;;;;;;14.65;10.18;;;;;;;;;;5161141;27;20034;-66
2021/01/25 14:39:20;;;;;;;15.10;10.23;;;;;;;;;;5153733;27;20043;-66
2021/01/25 14:42:06;;;;;;;13.18;8.52;;;;;;;;;;5122749;27;20048;-66
2021/01/25 14:44:51;;;;;;;14.18;9.30;;;;;;;;;;5088422;28;20048;-66
2021/01/25 14:47:38;;;;;;;12.10;8.60;;;;;;;;;;5105178;28;20043;-66
2021/01/25 14:50:23;;;;;;;11.43;8.63;;;;;;;;;;5097400;28;20115;-66
2021/01/25 14:53:08;;;;;;;10.82;8.75;;;;;;;;;;5115063;28;20645;-66
2021/01/25 14:55:54;;;;;;;13.35;8.75;;;;;;;;;;5093810;28;20440;-66
2021/01/25 14:58:39;;;;;;;10.52;8.48;;;;;;;;;;5101187;28;20048;-66
2021/01/25 15:01:25;;;;;;;15.73;10.23;;;;;;;;;;5090680;28;20212;-66
2021/01/25 15:04:11;;;;;;;12.05;9.13;;;;;;;;;;5099677;28;20055;-66
2021/01/25 15:06:57;;;;;;;12.88;9.38;;;;;;;;;;5101082;28;20062;-66
2021/01/25 15:09:43;;;;;;;13.93;9.50;;;;;;;;;;5077575;28;20059;-66
2021/01/25 15:12:28;;;;;;;15.88;10.32;;;;;;;;;;5120396;28;20044;-66
2021/01/25 15:15:14;;;;;;;17.10;10.35;;;;;;;;;;5090704;28;20040;-66
2021/01/25 15:17:59;;;;;;;16.42;10.38;;;;;;;;;;5094641;28;20039;-66
2021/01/25 15:20:44;;;;;;;16.30;11.50;;;;;;;;;;5080956;28;20052;-66
2021/01/25 15:23:29;;;;;;;17.20;11.85;;;;;;;;;;5078795;28;20418;-66
2021/01/25 15:26:15;;;;;;;14.50;11.93;;;;;;;;;;5084560;28;20482;-66
2021/01/25 15:29:00;;;;;;;20.00;13.13;;;;;;;;;;5076343;28;20041;-66
2021/01/25 15:31:46;;;;;;;19.73;13.10;;;;;;;;;;5067581;28;20115;-66
2021/01/25 15:34:31;;;;;;;20.70;13.88;;;;;;;;;;5071365;27;20406;-66
2021/01/25 15:37:16;;;;;;;24.20;15.05;;;;;;;;;;5087645;28;20116;-67
2021/01/25 15:40:01;;;;;;;21.85;15.82;;;;;;;;;;5081651;28;20036;-66
2021/01/25 15:42:47;;;;;;;21.73;15.73;;;;;;;;;;5079701;28;20040;-66
2021/01/25 15:45:32;;;;;;;22.60;16.27;;;;;;;;;;5082574;28;20052;-66
2021/01/25 15:48:17;;;;;;;22.70;15.30;;;;;;;;;;5084280;28;20056;-66
2021/01/25 15:51:02;;;;;;;22.92;15.80;;;;;;;;;;5089756;28;20470;-67
2021/01/25 15:53:48;;;;;;;24.67;17.40;;;;;;;;;;5064900;28;20040;-66
2021/01/25 15:56:34;;;;;;;23.20;17.77;;;;;;;;;;5086236;28;20494;-66
2021/01/25 15:59:19;;;;;;;24.35;18.27;;;;;;;;;;5077126;28;20060;-65
2021/01/25 16:02:04;;;;;;;27.25;20.70;;;;;;;;;;5072398;28;20419;-65
2021/01/25 16:04:49;;;;;;;35.15;21.23;;;;;;;;;;5070696;28;20069;-66
2021/01/25 16:07:35;;;;;;;26.35;18.85;;;;;;;;;;5061129;28;20036;-65
2021/01/25 16:10:20;;;;;;;24.50;17.67;;;;;;;;;;5083090;28;20044;-67
2021/01/25 16:13:06;;;;;;;23.23;17.73;;;;;;;;;;5089674;28;20055;-65
2021/01/25 16:15:51;;;;;;;25.13;16.40;;;;;;;;;;5066570;28;20538;-65
2021/01/25 16:18:37;;;;;;;22.85;15.50;;;;;;;;;;5080780;28;20044;-66
2021/01/25 16:21:22;;;;;;;23.92;17.15;;;;;;;;;;5089796;28;20044;-66
2021/01/25 16:24:14;;;;;;;24.90;17.45;;;;;;;;;;5079771;28;20071;-66
2021/01/25 16:26:59;;;;;;;22.80;17.48;;;;;;;;;;5073872;28;20041;-66
2021/01/25 16:29:44;;;;;;;21.30;16.63;;;;;;;;;;5063641;28;20071;-66
2021/01/25 16:32:29;;;;;;;27.08;15.90;;;;;;;;;;5062980;28;20048;-66
2021/01/25 16:35:15;;;;;;;24.77;16.95;;;;;;;;;;5066734;28;20036;-66
2021/01/25 16:38:00;;;;;;;19.15;15.70;;;;;;;;;;5064668;28;20044;-66
2021/01/25 16:40:46;;;;;;;21.17;16.08;;;;;;;;;;5081371;28;20192;-66
2021/01/25 16:43:32;;;;;;;28.20;16.55;;;;;;;;;;5075856;28;20043;-66
2021/01/25 16:46:17;;;;;;;21.98;16.63;;;;;;;;;;5088472;28;20563;-66
2021/01/25 16:49:03;;;;;;;24.77;18.23;;;;;;;;;;5097495;27;20048;-66
2021/01/25 16:51:48;;;;;;;23.55;16.25;;;;;;;;;;5092216;28;20133;-66
2021/01/25 16:54:33;;;;;;;23.13;16.42;;;;;;;;;;5105095;28;20043;-66
2021/01/25 16:57:18;;;;;;;21.58;14.98;;;;;;;;;;5094113;28;20107;-66
2021/01/25 17:00:05;;;;;;;27.73;19.30;;;;;;;;;;5100921;28;20028;-66
2021/01/25 17:02:52;;;;;;;17.48;13.93;;;;;;;;;;5111144;27;20040;-66
2021/01/25 17:05:37;;;;;;;22.35;13.93;;;;;;;;;;5080768;28;20083;-66
2021/01/25 17:08:23;;;;;;;17.73;12.80;;;;;;;;;;5102184;28;20044;-66
2021/01/25 17:11:08;;;;;;;22.02;12.52;;;;;;;;;;5109134;28;20039;-66
2021/01/25 17:13:53;;;;;;;21.80;12.88;;;;;;;;;;5092225;28;20040;-66
2021/01/25 17:16:39;;;;;;;19.83;13.88;;;;;;;;;;5091932;28;20052;-66
2021/01/25 17:19:24;;;;;;;18.55;12.18;;;;;;;;;;5122350;27;20040;-66
2021/01/25 17:22:09;;;;;;;21.88;13.15;;;;;;;;;;5103835;28;20051;-65
2021/01/25 17:24:54;;;;;;;19.80;11.90;;;;;;;;;;5101691;28;20043;-65
2021/01/25 17:27:40;;;;;;;13.43;8.57;;;;;;;;;;5104332;28;20060;-65
2021/01/25 17:30:25;;;;;;;10.90;5.50;;;;;;;;;;5102095;28;20052;-65
2021/01/25 17:33:11;;;;;;;10.20;4.75;;;;;;;;;;5093703;28;20048;-65
2021/01/25 17:35:56;;;;;;;9.52;4.90;;;;;;;;;;5092802;28;20490;-65
2021/01/25 17:38:41;;;;;;;7.95;4.88;;;;;;;;;;5102257;28;20417;-65
2021/01/25 17:41:26;;;;;;;9.23;3.42;;;;;;;;;;5102097;27;20048;-66
2021/01/25 17:44:12;;;;;;;5.32;3.55;;;;;;;;;;5088054;28;20650;-65
2021/01/25 17:46:57;;;;;;;11.90;4.57;;;;;;;;;;5102696;27;20051;-65
2021/01/25 17:49:42;;;;;;;7.03;4.00;;;;;;;;;;5089840;28;20046;-64
2021/01/25 17:52:28;;;;;;;14.13;5.10;;;;;;;;;;5069850;28;20056;-65
2021/01/25 17:55:17;;;;;;;11.38;4.20;;;;;;;;;;5088299;28;20036;-65
2021/01/25 17:58:02;;;;;;;8.23;4.07;;;;;;;;;;5090101;27;20127;-65
2021/01/25 18:00:47;;;;;;;9.35;4.75;;;;;;;;;;5089692;28;20438;-65
2021/01/25 18:03:32;;;;;;;10.73;5.13;;;;;;;;;;5090238;27;20082;-65
2021/01/25 18:06:17;;;;;;;8.63;5.03;;;;;;;;;;5105227;28;20047;-65
2021/01/25 18:09:03;;;;;;;11.73;5.38;;;;;;;;;;5099733;28;20032;-65
2021/01/25 18:11:48;;;;;;;9.48;4.93;;;;;;;;;;5089027;27;20120;-65
2021/01/25 18:14:34;;;;;;;9.30;5.03;;;;;;;;;;5090356;28;20486;-65
2021/01/25 18:17:19;;;;;;;8.20;4.68;;;;;;;;;;5089747;27;20398;-65
2021/01/25 18:20:05;;;;;;;7.68;4.32;;;;;;;;;;5085282;28;20121;-65
2021/01/25 18:22:50;;;;;;;9.13;4.38;;;;;;;;;;5089220;27;20071;-65
2021/01/25 18:25:36;;;;;;;9.68;3.88;;;;;;;;;;5089795;28;20047;-65
2021/01/25 18:28:21;;;;;;;10.75;4.03;;;;;;;;;;5089633;27;20081;-65
2021/01/25 18:31:06;;;;;;;7.13;4.13;;;;;;;;;;5090110;28;20565;-65
2021/01/25 18:33:51;;;;;;;6.55;5.05;;;;;;;;;;5089023;27;20131;-64
2021/01/25 18:36:37;;;;;;;7.28;3.67;;;;;;;;;;5089270;28;20462;-65
2021/01/25 18:39:22;;;;;;;5.70;3.65;;;;;;;;;;5089437;28;20032;-65
2021/01/25 18:42:07;;;;;;;6.80;4.45;;;;;;;;;;5086867;27;20036;-65
2021/01/25 18:44:52;;;;;;;8.00;4.38;;;;;;;;;;5081594;28;20044;-65
2021/01/25 18:47:39;;;;;;;5.35;4.15;;;;;;;;;;5088722;27;20048;-65
2021/01/25 18:50:25;;;;;;;10.52;4.38;;;;;;;;;;5090580;28;20047;-65
2021/01/25 18:53:10;;;;;;;8.07;5.45;;;;;;;;;;5082313;28;20060;-65
2021/01/25 18:55:55;;;;;;;10.20;4.93;;;;;;;;;;5088333;28;20496;-65
2021/01/25 18:58:41;;;;;;;10.25;5.00;;;;;;;;;;5088404;27;20048;-65
2021/01/25 19:01:26;;;;;;;9.82;5.30;;;;;;;;;;5094186;28;20036;-65
2021/01/25 19:04:11;;;;;;;11.45;4.70;;;;;;;;;;5094003;28;20052;-65
2021/01/25 19:06:56;;;;;;;6.85;4.57;;;;;;;;;;5094765;28;20040;-65
2021/01/25 19:09:42;;;;;;;10.40;5.65;;;;;;;;;;5095603;28;20051;-65
2021/01/25 19:12:27;;;;;;;16.80;6.20;;;;;;;;;;5101941;28;20085;-65
2021/01/25 19:15:13;;;;;;;12.52;5.60;;;;;;;;;;5092465;28;20043;-65
2021/01/25 19:17:59;;;;;;;10.18;5.45;;;;;;;;;;5091871;27;20070;-65
2021/01/25 19:20:45;;;;;;;9.88;5.68;;;;;;;;;;5092813;28;20566;-65
2021/01/25 19:23:30;;;;;;;10.82;4.80;;;;;;;;;;5092579;27;20052;-65
2021/01/25 19:26:16;;;;;;;7.80;4.95;;;;;;;;;;5092347;28;20115;-65
2021/01/25 19:29:01;;;;;;;8.43;5.47;;;;;;;;;;5091856;27;20040;-65
2021/01/25 19:31:47;;;;;;;10.32;5.25;;;;;;;;;;5092788;28;20040;-65
2021/01/25 19:34:34;;;;;;;15.52;6.07;;;;;;;;;;5092858;28;20040;-65
2021/01/25 19:37:18;;;;;;;10.30;5.75;;;;;;;;;;5092314;27;20662;-65
2021/01/25 19:40:10;;;;;;;11.27;6.28;;;;;;;;;;5091887;28;20119;-65
2021/01/25 19:42:56;;;;;;;13.63;7.20;;;;;;;;;;5088478;27;20482;-65
2021/01/25 19:45:41;;;;;;;11.40;7.63;;;;;;;;;;5095277;28;20036;-65
2021/01/25 19:48:27;;;;;;;10.98;8.00;;;;;;;;;;5091776;27;20457;-65
2021/01/25 19:51:13;;;;;;;15.68;9.55;;;;;;;;;;5100386;27;20064;-65
2021/01/25 19:53:58;;;;;;;15.00;9.23;;;;;;;;;;5088770;27;20200;-65
2021/01/25 19:56:43;;;;;;;11.98;9.20;;;;;;;;;;5091004;28;20032;-65
2021/01/25 19:59:28;;;;;;;13.43;9.70;;;;;;;;;;5085628;27;20060;-65
2021/01/25 20:02:13;;;;;;;12.38;10.48;;;;;;;;;;5095680;28;20040;-66
2021/01/25 20:04:58;;;;;;;14.85;11.40;;;;;;;;;;5093258;28;20051;-66
2021/01/25 20:07:47;;;;;;;16.10;11.73;;;;;;;;;;5106468;28;20055;-65
2021/01/25 20:10:33;;;;;;;16.52;12.45;;;;;;;;;;5111076;27;20448;-66
2021/01/25 20:13:20;;;;;;;20.13;12.57;;;;;;;;;;5107792;28;20056;-66
2021/01/25 20:16:06;;;;;;;15.57;12.10;;;;;;;;;;5096193;28;20040;-65
2021/01/25 20:18:51;;;;;;;18.25;12.82;;;;;;;;;;5099258;27;20119;-65
2021/01/25 20:21:36;;;;;;;18.42;12.98;;;;;;;;;;5100970;27;20047;-65
2021/01/25 20:24:22;;;;;;;24.55;13.85;;;;;;;;;;5095107;27;20055;-65
2021/01/25 20:27:07;;;;;;;17.40;13.32;;;;;;;;;;5104323;28;20040;-65
2021/01/25 20:29:52;;;;;;;18.17;13.85;;;;;;;;;;5094531;27;20056;-65
2021/01/25 20:32:37;;;;;;;21.02;13.93;;;;;;;;;;5096967;28;20047;-66
2021/01/25 20:35:24;;;;;;;19.60;13.00;;;;;;;;;;5099234;28;20048;-65
2021/01/25 20:38:09;;;;;;;25.63;17.05;;;;;;;;;;5121168;27;20044;-65
2021/01/25 20:40:55;;;;;;;24.55;15.98;;;;;;;;;;5102137;28;20048;-66
2021/01/25 20:43:40;;;;;;;24.73;16.95;;;;;;;;;;5089805;27;20056;-65
2021/01/25 20:46:26;;;;;;;21.92;15.57;;;;;;;;;;5102599;28;20118;-65
2021/01/25 20:49:11;;;;;;;23.98;17.55;;;;;;;;;;5083827;27;20052;-65
2021/01/25 20:51:56;;;;;;;24.05;15.70;;;;;;;;;;5100124;28;20036;-65
2021/01/25 20:54:41;;;;;;;21.63;16.15;;;;;;;;;;5100002;28;20429;-65
2021/01/25 20:57:29;;;;;;;22.55;14.18;;;;;;;;;;5093482;28;20070;-64
2021/01/25 21:00:15;;;;;;;18.52;13.13;;;;;;;;;;5098770;28;20043;-65
2021/01/25 21:03:00;;;;;;;17.10;9.60;;;;;;;;;;5099531;28;20501;-65
2021/01/25 21:05:45;;;;;;;14.63;8.25;;;;;;;;;;5093972;28;20043;-65
2021/01/25 21:08:30;;;;;;;10.48;7.00;;;;;;;;;;5080927;28;20056;-65
2021/01/25 21:11:16;;;;;;;9.23;6.88;;;;;;;;;;5098725;28;20491;-65
2021/01/25 21:14:01;;;;;;;10.65;7.20;;;;;;;;;;5091411;28;20040;-65
2021/01/25 21:16:46;;;;;;;9.98;7.50;;;;;;;;;;5090616;28;20469;-65